Elkhart Lake, Wisconsin
Current Conditions -  °F | °C
As of 7:53 PM on Friday 24 Oct 2014 (Local Time) from KSBM Reporting Station
Overcast Overcast  
Wind Chill: 51°   Ceiling: 7500
Heat Index: 51°   Visibility: 7mi
Dew Point: 49°   Wind: 6mph
Humidity: 92%   Direction: 180°S
Pressure: 29.92"   Gusts: NA
Location:  43.83°N, 88.02°W
Report Text: KSBM 250053Z AUTO 18005KT 7SM BKN075 OVC100 11/09 A2992 RMK AO2 SLP135 T01060094
Loading
Personal Weather Stations






























Interactive Weather Map
Tropical Storm Tracking
New forecast layout! Learn more

10-Day Weather Forecast

Advertisements
Track Severe Weather on mobile